Lulu Pass Weather Station

This weather station provides temperature, relative humidity (RH), wind speed, gust or max wind speed, and wind direction at 10014ft near Lulu Pass at the head of Fisher Creek. This data can be used with temperature and precipitation data from the Fisher Creek SNOTEL site.

This weather station was purchased by the Friends of the Avalanche Center.

If the data has not been updated recently you can view it directly on datagarrison.com

Elevation
10014ft
Jump to table bottom
Date Time Temperature
deg F
RH, % Wind Speed Wind Gust Wind Direction
06/28/22 21:00 52.2 49 14 20 SE - 140
06/28/22 20:00 51.4 51 7 16 E - 80
06/28/22 19:00 50.8 49 8 32 SW - 240
06/28/22 18:00 55.3 48 11 31 W - 271
06/28/22 17:00 52.7 52 13 41 S - 195
06/28/22 16:00 55.0 48 10 26 SW - 225
06/28/22 15:00 57.6 47 8 39 SW - 218
06/28/22 14:00 61.8 44 8 16 S - 163
06/28/22 13:00 57.0 48 10 37 S - 183
06/28/22 12:00 51.5 44 10 41 SW - 240
06/28/22 11:00 58.0 37 10 21 S - 198
06/28/22 10:00 58.5 39 9 18 SW - 205
06/28/22 09:00 56.5 40 6 16 S - 201
06/28/22 08:00 55.0 41 3 10 SW - 244
06/28/22 07:00 54.0 43 6 12 S - 201
06/28/22 06:00 51.8 46 3 9 NW - 302
06/28/22 05:00 50.9 47 5 14 S - 181
06/28/22 04:00 51.2 46 7 13 S - 166
06/28/22 03:00 51.3 47 8 14 SE - 146
06/28/22 02:00 51.0 46 8 14 S - 163
06/28/22 01:00 50.9 49 6 10 SE - 147
06/28/22 00:00 50.6 47 7 10 SE - 135
06/27/22 23:00 52.1 49 6 11 SE - 129
06/27/22 22:00 50.9 49 6 10 SE - 117
06/27/22 21:00 53.4 33 5 10 NW - 298
06/27/22 20:00 55.4 30 13 20 NW - 316
06/27/22 19:00 56.9 29 16 27 NW - 313
06/27/22 18:00 57.6 29 19 29 NW - 313
06/27/22 17:00 58.3 29 21 35 NW - 316
06/27/22 16:00 56.3 30 10 24 W - 282
06/27/22 15:00 59.0 30 12 27 W - 272
06/27/22 14:00 61.0 33 9 20 SW - 204
06/27/22 13:00 58.9 36 7 17 SW - 222
06/27/22 12:00 56.8 37 7 19 SW - 219
06/27/22 11:00 54.5 38 7 22 SW - 244
06/27/22 10:00 54.7 43 7 18 W - 284
06/27/22 09:00 51.3 47 8 13 NW - 300
06/27/22 08:00 49.3 47 8 11 NW - 313
06/27/22 07:00 47.7 47 8 13 NW - 319
06/27/22 06:00 47.0 49 8 13 NW - 319
06/27/22 05:00 46.3 49 7 10 NW - 309
06/27/22 04:00 46.4 49 7 13 W - 272
06/27/22 03:00 46.6 46 5 10 W - 250
06/27/22 02:00 46.9 41 4 8 W - 291
06/27/22 01:00 47.0 38 4 6 W - 270
06/27/22 00:00 46.5 56 4 7 SE - 135
06/26/22 23:00 45.4 63 7 10 E - 107
06/26/22 22:00 45.9 60 6 10 E - 108
06/26/22 21:00 46.5 44 6 10 N - 351
06/26/22 20:00 50.6 46 7 10 NW - 327